Time;durP1;ratioP1;P1;durP2;ratioP2;P2;SDS_P1;SDS_P2;PMS_P1;PMS_P2;Temp;Humidity;BMP_temperature;BMP_pressure;BME280_temperature;BME280_humidity;BME280_pressure;Samples;Min_cycle;Max_cycle;Signal;HPM_P1;HPM_P2
2023/04/24 00:02:01;;;;;;;;;12.00;12.00;;;;;18.65;32.88;97951.69;6012128;29;96287;-60
2023/04/24 00:05:05;;;;;;;;;14.00;14.00;;;;;18.57;32.79;97946.88;6026866;29;96440;-60
2023/04/24 00:08:10;;;;;;;;;12.00;11.00;;;;;18.56;32.50;97945.28;6027138;29;97457;-61
2023/04/24 00:11:13;;;;;;;;;13.25;13.00;;;;;18.54;32.49;97942.81;6011317;29;96250;-61
2023/04/24 00:14:18;;;;;;;;;14.00;12.40;;;;;18.50;32.52;97944.50;6002973;29;96993;-61
2023/04/24 00:17:21;;;;;;;;;12.00;12.00;;;;;18.43;32.93;97946.78;6000012;29;99022;-61
2023/04/24 00:20:25;;;;;;;;;14.40;13.40;;;;;18.35;33.33;97942.00;6006106;29;96331;-61
2023/04/24 00:23:28;;;;;;;;;15.00;14.40;;;;;18.30;32.95;97947.53;6026147;29;96216;-61
2023/04/24 00:26:32;;;;;;;;;12.60;12.00;;;;;18.25;33.48;97944.03;6023037;29;96348;-61
2023/04/24 00:29:37;;;;;;;;;15.00;15.00;;;;;18.23;33.47;97946.28;6003354;29;96262;-61
2023/04/24 00:32:40;;;;;;;;;10.80;10.80;;;;;18.23;33.09;97940.81;6003853;29;96363;-61
2023/04/24 00:35:43;;;;;;;;;15.00;14.60;;;;;18.24;32.47;97926.06;6003229;29;96337;-60
2023/04/24 00:38:47;;;;;;;;;13.00;13.00;;;;;18.23;32.84;97927.19;6003474;29;96149;-61
2023/04/24 00:41:52;;;;;;;;;14.00;13.00;;;;;18.25;31.79;97933.94;6003794;29;96231;-61
2023/04/24 00:44:57;;;;;;;;;11.00;11.00;;;;;18.38;31.08;97926.94;6003553;29;96273;-60
2023/04/24 00:48:01;;;;;;;;;14.40;13.60;;;;;18.50;30.53;97930.84;6003928;29;96258;-61
2023/04/24 00:51:05;;;;;;;;;13.20;12.80;;;;;18.56;30.27;97915.25;5990420;29;96656;-61
2023/04/24 00:54:08;;;;;;;;;12.25;12.00;;;;;18.67;30.11;97918.63;6026364;29;96357;-61
2023/04/24 00:57:15;;;;;;;;;14.00;12.00;;;;;18.65;30.06;97905.28;6009490;29;96351;-61
2023/04/24 01:00:20;;;;;;;;;11.40;11.00;;;;;18.76;29.97;97914.13;6024347;29;96357;-61
2023/04/24 01:03:27;;;;;;;;;14.40;14.40;;;;;18.78;29.81;97917.34;5963485;29;96381;-61
2023/04/24 01:06:31;;;;;;;;;13.00;12.75;;;;;18.77;29.77;97911.06;5979875;29;96980;-61
2023/04/24 01:09:36;;;;;;;;;12.00;11.40;;;;;18.64;30.12;97903.63;5979771;29;96122;-61
2023/04/24 01:12:39;;;;;;;;;11.00;10.50;;;;;18.74;29.99;97905.41;5986222;29;96336;-61
2023/04/24 01:15:44;;;;;;;;;13.00;13.00;;;;;18.71;30.06;97898.63;5986642;29;96339;-61
2023/04/24 01:18:48;;;;;;;;;11.80;10.20;;;;;18.65;30.46;97899.81;5960411;29;96692;-61
2023/04/24 01:21:54;;;;;;;;;13.60;12.60;;;;;18.59;30.49;97898.25;5963238;29;99870;-61
2023/04/24 01:24:59;;;;;;;;;12.00;12.00;;;;;18.49;30.72;97907.38;5979043;29;96388;-61
2023/04/24 01:28:06;;;;;;;;;14.00;13.00;;;;;18.35;32.21;97901.06;6010381;29;96226;-60
2023/04/24 01:31:09;;;;;;;;;13.40;13.40;;;;;18.16;31.84;97892.88;6011243;29;96668;-61
2023/04/24 01:34:13;;;;;;;;;14.50;14.00;;;;;18.06;32.64;97889.47;5985269;29;96223;-61
2023/04/24 01:37:16;;;;;;;;;16.00;15.00;;;;;17.96;33.49;97893.16;5985772;29;96264;-61
2023/04/24 01:40:21;;;;;;;;;13.60;13.60;;;;;17.92;32.93;97885.88;5980376;29;98989;-61
2023/04/24 01:43:25;;;;;;;;;12.20;12.20;;;;;17.77;33.50;97878.69;5978080;29;96234;-61
2023/04/24 01:46:28;;;;;;;;;13.40;13.00;;;;;17.90;33.37;97885.34;5988589;29;96349;-60
2023/04/24 01:49:34;;;;;;;;;13.00;12.00;;;;;17.92;33.12;97888.59;6019306;29;96218;-61
2023/04/24 01:52:37;;;;;;;;;13.00;13.00;;;;;17.84;32.52;97870.94;6012286;29;96784;-61
2023/04/24 01:55:42;;;;;;;;;13.00;12.00;;;;;17.90;32.84;97872.50;5999746;29;96251;-60
2023/04/24 01:58:45;;;;;;;;;12.00;12.00;;;;;17.99;31.96;97867.22;5978371;29;96755;-61
2023/04/24 02:01:48;;;;;;;;;14.00;14.00;;;;;18.03;32.10;97865.53;5984710;29;98947;-60
2023/04/24 02:04:54;;;;;;;;;14.50;14.00;;;;;17.97;31.94;97864.78;5984990;29;96265;-61
2023/04/24 02:07:57;;;;;;;;;14.00;13.00;;;;;17.90;32.33;97850.69;5998191;29;96825;-61
2023/04/24 02:11:02;;;;;;;;;14.00;13.00;;;;;17.90;32.66;97855.34;5985678;29;96262;-61
2023/04/24 02:14:07;;;;;;;;;14.20;13.80;;;;;17.81;32.75;97859.84;5969850;29;96675;-61
2023/04/24 02:17:13;;;;;;;;;13.00;13.00;;;;;17.77;32.55;97850.63;6004667;29;96909;-61
2023/04/24 02:20:17;;;;;;;;;13.00;12.00;;;;;17.73;32.82;97851.22;5979431;29;96238;-62
2023/04/24 02:23:20;;;;;;;;;14.25;13.25;;;;;17.67;33.01;97844.22;5995660;29;96287;-61
2023/04/24 02:26:26;;;;;;;;;12.80;12.20;;;;;17.68;32.47;97837.66;5978888;29;96832;-61
2023/04/24 02:29:29;;;;;;;;;11.00;10.75;;;;;17.70;32.86;97838.16;5994667;29;96264;-61
2023/04/24 02:32:33;;;;;;;;;13.60;13.00;;;;;17.65;32.90;97829.22;5994195;29;97123;-61
2023/04/24 02:35:37;;;;;;;;;14.00;13.40;;;;;17.65;32.48;97827.31;5989307;29;96527;-61
2023/04/24 02:38:41;;;;;;;;;14.00;14.00;;;;;17.64;32.63;97824.91;5969279;29;96332;-61
2023/04/24 02:41:45;;;;;;;;;13.00;11.20;;;;;17.65;32.28;97821.88;5984072;29;96676;-61
2023/04/24 02:44:50;;;;;;;;;10.60;10.00;;;;;17.65;32.28;97821.06;6000228;29;96333;-61
2023/04/24 02:47:53;;;;;;;;;13.00;12.50;;;;;17.53;33.61;97821.47;5985702;29;96392;-61
2023/04/24 02:50:57;;;;;;;;;13.40;13.00;;;;;17.36;34.06;97820.31;6008707;29;97325;-61
2023/04/24 02:54:00;;;;;;;;;15.00;13.20;;;;;17.10;34.48;97806.22;6002197;29;96920;-60
2023/04/24 02:57:05;;;;;;;;;13.20;12.20;;;;;17.11;33.24;97811.34;5991530;29;96390;-61
2023/04/24 03:00:11;;;;;;;;;12.00;11.20;;;;;17.17;32.69;97810.19;5991232;29;96372;-61
2023/04/24 03:03:15;;;;;;;;;14.00;13.00;;;;;17.25;33.26;97801.38;6001913;29;96260;-61
2023/04/24 03:06:18;;;;;;;;;13.00;12.60;;;;;17.31;32.79;97816.56;5984528;29;96861;-61
2023/04/24 03:09:21;;;;;;;;;14.00;14.00;;;;;17.36;32.63;97810.22;5994096;29;96474;-61
2023/04/24 03:12:26;;;;;;;;;11.50;11.00;;;;;17.12;33.38;97793.91;6022046;29;96241;-61
2023/04/24 03:15:30;;;;;;;;;12.40;11.40;;;;;17.21;33.05;97811.22;5986581;29;96327;-61
2023/04/24 03:18:34;;;;;;;;;13.00;12.00;;;;;17.14;34.39;97820.84;6002791;29;96481;-61
2023/04/24 03:21:40;;;;;;;;;14.50;14.00;;;;;17.03;34.37;97822.88;5988774;29;96297;-61
2023/04/24 03:24:44;;;;;;;;;14.00;12.40;;;;;16.95;34.71;97811.81;5989884;29;96870;-61
2023/04/24 03:27:52;;;;;;;;;13.00;12.00;;;;;16.78;35.00;97795.91;5991507;29;96375;-61
2023/04/24 03:31:10;;;;;;;;;12.00;12.00;;;;;16.83;34.53;97809.47;5988330;29;96148;-61
2023/04/24 03:34:13;;;;;;;;;14.40;12.40;;;;;16.82;35.15;97802.41;5986599;29;96586;-61
2023/04/24 03:37:17;;;;;;;;;11.60;10.60;;;;;16.74;35.43;97803.03;5999076;29;96325;-61
2023/04/24 03:40:36;;;;;;;;;14.40;14.00;;;;;16.64;35.78;97803.13;5986912;29;96449;-61
2023/04/24 03:43:48;;;;;;;;;14.60;14.00;;;;;16.61;36.00;97804.53;5988764;29;97022;-61
2023/04/24 03:46:52;;;;;;;;;14.00;13.00;;;;;16.57;35.85;97798.00;5970816;29;96574;-61
2023/04/24 03:49:57;;;;;;;;;16.00;15.00;;;;;16.65;35.98;97807.50;5983647;29;96965;-61
2023/04/24 03:53:00;;;;;;;;;20.20;18.80;;;;;16.71;35.61;97807.13;5999481;29;96457;-62
2023/04/24 03:56:14;;;;;;;;;20.00;19.00;;;;;16.64;36.86;97806.69;5988155;29;96798;-61
2023/04/24 03:59:19;;;;;;;;;16.00;15.00;;;;;16.57;36.50;97806.16;5983175;29;96845;-61
2023/04/24 04:02:33;;;;;;;;;17.50;15.50;;;;;16.50;36.96;97802.97;5984663;29;96642;-61
2023/04/24 04:05:37;;;;;;;;;20.00;16.00;;;;;16.50;37.13;97802.16;6000716;28;96453;-60
2023/04/24 04:08:40;;;;;;;;;13.80;12.00;;;;;16.39;35.97;97785.94;6005652;29;97034;-61
2023/04/24 04:11:44;;;;;;;;;16.50;15.75;;;;;16.60;36.29;97812.97;5971379;29;96162;-61
2023/04/24 04:14:49;;;;;;;;;16.50;14.50;;;;;16.59;36.95;97814.06;5985821;29;96198;-61
2023/04/24 04:17:52;;;;;;;;;14.00;13.00;;;;;16.58;37.10;97812.41;5985487;29;95980;-61
2023/04/24 04:20:56;;;;;;;;;17.00;15.60;;;;;16.51;37.07;97807.31;5990898;29;97582;-60
2023/04/24 04:24:00;;;;;;;;;15.75;14.25;;;;;16.55;36.82;97807.56;5978431;29;98545;-61
2023/04/24 04:27:10;;;;;;;;;15.00;14.00;;;;;16.62;37.51;97806.13;5968304;29;97303;-61
2023/04/24 04:30:38;;;;;;;;;13.00;13.00;;;;;16.67;37.93;97805.28;5976407;29;96569;-61
2023/04/24 04:33:41;;;;;;;;;15.60;14.60;;;;;16.73;38.13;97796.78;5972152;29;96503;-61
2023/04/24 04:36:46;;;;;;;;;13.00;13.00;;;;;16.88;36.76;97802.06;5986844;29;96413;-61
2023/04/24 04:40:01;;;;;;;;;15.00;15.00;;;;;17.00;36.40;97790.78;5978964;29;96363;-61
2023/04/24 04:43:10;;;;;;;;;13.00;13.00;;;;;17.22;37.19;97801.97;5989565;29;96269;-61
2023/04/24 04:46:21;;;;;;;;;14.80;14.80;;;;;17.29;37.03;97791.53;5980912;29;96205;-61
2023/04/24 04:49:51;;;;;;;;;15.50;15.50;;;;;17.42;37.28;97800.91;5988504;29;96459;-61
2023/04/24 04:52:58;;;;;;;;;15.40;14.40;;;;;17.55;37.30;97794.72;5980735;29;96336;-61
2023/04/24 04:56:07;;;;;;;;;15.00;14.00;;;;;17.69;36.77;97794.84;5972204;29;96752;-61
2023/04/24 04:59:20;;;;;;;;;17.40;15.00;;;;;17.86;36.91;97797.88;5984705;29;96952;-61
2023/04/24 05:02:28;;;;;;;;;19.00;19.00;;;;;18.03;36.88;97798.13;6000421;29;96968;-61
2023/04/24 05:05:32;;;;;;;;;17.00;16.00;;;;;18.20;36.82;97792.16;6001147;29;96259;-61
2023/04/24 05:08:35;;;;;;;;;17.00;17.00;;;;;18.38;36.46;97796.75;5986700;29;96921;-61
2023/04/24 05:11:41;;;;;;;;;14.50;14.50;;;;;18.55;36.19;97799.78;5989342;29;96309;-61
2023/04/24 05:14:45;;;;;;;;;16.00;14.00;;;;;18.73;35.85;97789.09;5979752;29;96315;-60
2023/04/24 05:17:50;;;;;;;;;13.75;12.00;;;;;18.89;35.34;97794.00;5984706;29;96279;-61
2023/04/24 05:20:53;;;;;;;;;17.00;16.00;;;;;19.07;35.48;97792.28;5965154;29;96339;-61
2023/04/24 05:23:57;;;;;;;;;12.00;12.00;;;;;19.24;35.61;97797.13;5977503;29;96472;-61
2023/04/24 05:27:19;;;;;;;;;15.40;14.40;;;;;19.39;35.49;97783.16;5998828;29;96377;-61
2023/04/24 05:30:24;;;;;;;;;13.00;13.00;;;;;19.55;35.72;97789.94;5983729;29;98845;-61
2023/04/24 05:33:31;;;;;;;;;17.00;16.60;;;;;19.68;35.89;97783.66;5992108;29;96767;-61
2023/04/24 05:36:35;;;;;;;;;18.00;17.60;;;;;19.81;35.37;97780.06;5967671;29;97213;-61
2023/04/24 05:39:38;;;;;;;;;15.00;15.00;;;;;19.96;35.04;97780.84;6000236;29;96296;-62
2023/04/24 05:42:42;;;;;;;;;17.00;15.00;;;;;20.14;34.59;97782.59;5968437;29;97043;-61
2023/04/24 05:45:45;;;;;;;;;14.80;14.00;;;;;20.26;34.53;97775.44;5983153;29;96769;-61
2023/04/24 05:48:50;;;;;;;;;16.00;15.00;;;;;20.42;34.24;97775.91;6017676;29;96288;-61
2023/04/24 05:51:53;;;;;;;;;15.00;14.00;;;;;20.55;33.96;97775.03;5991817;29;97551;-61
2023/04/24 05:54:57;;;;;;;;;14.60;14.60;;;;;20.74;33.69;97778.34;6004057;29;96480;-61
2023/04/24 05:58:06;;;;;;;;;16.00;16.00;;;;;20.87;33.24;97778.56;5969055;29;99763;-61
2023/04/24 06:01:11;;;;;;;;;17.40;16.00;;;;;21.02;33.50;97780.88;5968792;29;96772;-61
2023/04/24 06:04:16;;;;;;;;;16.00;14.20;;;;;21.14;32.91;97781.13;5984146;29;96280;-61
2023/04/24 06:07:21;;;;;;;;;15.25;14.00;;;;;21.31;32.26;97780.38;5983485;29;96903;-61
2023/04/24 06:10:24;;;;;;;;;16.60;16.00;;;;;21.49;32.25;97784.78;5984077;29;96318;-61
2023/04/24 06:13:28;;;;;;;;;16.00;14.50;;;;;21.64;32.11;97773.38;5984535;29;96343;-61
2023/04/24 06:17:10;;;;;;;;;18.25;16.50;;;;;21.86;33.15;97780.66;5953144;29;96243;-61
2023/04/24 06:20:17;;;;;;;;;17.00;16.40;;;;;22.06;32.13;97771.00;5952591;29;96774;-61
2023/04/24 06:23:20;;;;;;;;;17.00;15.00;;;;;22.21;32.66;97774.06;6004905;29;96573;-61
2023/04/24 06:26:24;;;;;;;;;17.00;16.00;;;;;22.30;31.56;97749.34;6002795;29;96316;-61
2023/04/24 06:29:28;;;;;;;;;15.60;14.00;;;;;22.55;31.42;97758.66;5983125;29;96521;-61
2023/04/24 06:32:31;;;;;;;;;14.00;13.00;;;;;22.75;31.20;97758.81;5981465;29;96138;-60
2023/04/24 06:35:37;;;;;;;;;19.00;17.40;;;;;22.93;31.74;97747.75;5978923;29;96504;-60
2023/04/24 06:38:41;;;;;;;;;16.00;15.40;;;;;23.07;30.74;97757.38;5994768;29;96228;-61
2023/04/24 06:41:44;;;;;;;;;14.50;11.50;;;;;23.37;30.98;97755.44;5993373;29;96281;-60
2023/04/24 06:44:54;;;;;;;;;12.00;11.50;;;;;23.68;30.46;97752.38;5977032;29;96346;-60
2023/04/24 06:47:58;;;;;;;;;13.25;12.25;;;;;23.86;28.47;97733.78;5993269;29;96325;-60
2023/04/24 06:51:02;;;;;;;;;13.00;11.50;;;;;24.12;28.88;97737.94;5977825;29;96233;-60
2023/04/24 06:54:06;;;;;;;;;12.00;11.60;;;;;24.32;28.30;97743.78;5994547;29;96483;-61
2023/04/24 06:57:10;;;;;;;;;16.00;14.25;;;;;24.60;28.82;97742.03;5993406;29;96708;-60
2023/04/24 07:00:14;;;;;;;;;17.40;14.40;;;;;24.75;28.17;97749.66;5995376;29;96352;-59
2023/04/24 07:03:17;;;;;;;;;13.25;11.75;;;;;24.93;27.56;97748.31;5994636;29;97143;-60
2023/04/24 07:06:23;;;;;;;;;14.80;14.80;;;;;25.06;28.33;97740.88;5991260;29;96272;-60
2023/04/24 07:09:27;;;;;;;;;13.80;13.40;;;;;25.26;27.75;97741.94;5995214;29;96321;-60
2023/04/24 07:12:30;;;;;;;;;16.00;15.00;;;;;25.36;26.07;97741.47;5995063;29;96455;-60
2023/04/24 07:15:33;;;;;;;;;15.60;15.00;;;;;25.44;25.60;97733.06;5999231;29;96403;-59
2023/04/24 07:18:37;;;;;;;;;9.60;8.60;;;;;25.47;24.18;97726.03;5986187;29;96690;-59
2023/04/24 07:21:41;;;;;;;;;11.20;11.20;;;;;25.40;22.37;97725.81;6002915;29;96267;-59
2023/04/24 07:24:45;;;;;;;;;10.60;10.00;;;;;25.27;22.42;97726.97;6002834;28;96372;-59
2023/04/24 07:27:48;;;;;;;;;13.00;12.00;;;;;25.29;23.34;97717.19;6002798;29;96269;-59
2023/04/24 07:30:53;;;;;;;;;9.60;9.60;;;;;25.53;22.66;97719.13;6002469;29;96337;-59
2023/04/24 07:33:58;;;;;;;;;11.60;10.00;;;;;25.78;21.72;97717.16;6002884;29;96469;-59
2023/04/24 07:37:03;;;;;;;;;10.40;10.40;;;;;25.98;21.29;97713.41;6006791;28;96286;-59
2023/04/24 07:40:07;;;;;;;;;10.67;9.00;;;;;25.61;21.23;97720.97;6007104;28;96281;-59
2023/04/24 07:43:10;;;;;;;;;11.50;11.00;;;;;25.90;22.22;97713.56;6006649;29;96193;-60
2023/04/24 07:46:14;;;;;;;;;9.00;9.00;;;;;25.92;21.22;97714.00;5990874;28;97293;-59
2023/04/24 07:49:17;;;;;;;;;13.60;10.20;;;;;25.69;20.66;97709.00;6006374;29;96247;-59
2023/04/24 07:52:24;;;;;;;;;10.40;10.00;;;;;25.72;22.20;97711.06;6005186;29;96428;-59
2023/04/24 07:55:27;;;;;;;;;8.00;8.00;;;;;25.58;22.00;97712.59;6005870;29;96245;-60
2023/04/24 07:58:30;;;;;;;;;12.00;11.50;;;;;25.58;22.22;97718.91;5996288;29;96194;-60
2023/04/24 08:01:34;;;;;;;;;11.00;10.60;;;;;25.84;22.46;97707.47;6005646;28;96321;-59
2023/04/24 08:04:37;;;;;;;;;11.00;10.20;;;;;26.02;21.52;97705.22;6005986;28;97122;-60
2023/04/24 08:07:43;;;;;;;;;9.00;9.00;;;;;26.00;21.36;97697.28;5981823;29;97238;-59
2023/04/24 08:10:46;;;;;;;;;10.00;9.40;;;;;26.30;20.36;97686.69;5983591;29;96403;-60
2023/04/24 08:13:49;;;;;;;;;10.40;10.00;;;;;26.47;21.33;97689.16;5967401;29;96713;-60
2023/04/24 08:16:55;;;;;;;;;11.00;9.00;;;;;26.94;20.68;97683.66;5982876;29;96251;-60
2023/04/24 08:20:01;;;;;;;;;9.60;9.00;;;;;27.21;18.82;97694.97;5966432;29;96674;-60
2023/04/24 08:23:07;;;;;;;;;7.60;7.40;;;;;27.63;20.19;97687.69;5982585;29;96366;-59
2023/04/24 08:26:11;;;;;;;;;10.00;10.00;;;;;27.83;19.15;97681.00;5975717;29;96261;-59
2023/04/24 08:29:15;;;;;;;;;7.60;7.40;;;;;27.41;19.05;97691.91;6004908;28;96456;-59
2023/04/24 08:32:18;;;;;;;;;7.20;7.20;;;;;27.80;19.90;97684.50;6005681;29;97481;-59
2023/04/24 08:35:22;;;;;;;;;9.00;9.00;;;;;28.06;18.83;97678.28;6005395;28;97113;-60
2023/04/24 08:38:27;;;;;;;;;9.40;9.00;;;;;28.21;18.08;97684.94;6006057;28;96267;-60
2023/04/24 08:41:31;;;;;;;;;9.00;9.00;;;;;28.30;18.67;97679.97;6005511;29;96306;-59
2023/04/24 08:44:37;;;;;;;;;7.00;6.00;;;;;28.67;20.01;97677.50;5989650;29;96255;-60
2023/04/24 08:47:41;;;;;;;;;10.00;10.00;;;;;29.01;17.99;97675.72;6000477;28;96217;-59
2023/04/24 08:50:45;;;;;;;;;8.25;8.00;;;;;29.12;17.21;97676.69;6005536;29;96202;-60
2023/04/24 08:53:52;;;;;;;;;8.40;8.40;;;;;29.08;17.61;97654.41;6005559;28;96298;-60
2023/04/24 08:57:01;;;;;;;;;8.80;8.00;;;;;29.25;17.94;97669.75;6006205;28;96362;-59
2023/04/24 09:00:05;;;;;;;;;9.00;9.00;;;;;29.33;17.96;97668.72;5989080;29;96835;-60
2023/04/24 09:03:11;;;;;;;;;9.00;8.00;;;;;29.31;17.40;97667.50;5990347;29;96251;-60
2023/04/24 09:06:17;;;;;;;;;11.00;11.00;;;;;29.50;17.08;97661.81;6005646;28;96252;-60
2023/04/24 09:09:23;;;;;;;;;7.00;7.00;;;;;29.52;17.92;97665.00;5989685;29;99196;-59
2023/04/24 09:12:26;;;;;;;;;8.60;8.60;;;;;29.34;17.49;97670.31;6005757;28;96218;-59
2023/04/24 09:15:30;;;;;;;;;7.00;7.00;;;;;29.45;17.01;97660.19;6005490;28;96925;-60
2023/04/24 09:18:35;;;;;;;;;9.00;9.00;;;;;29.71;17.01;97656.56;6005552;29;96447;-60
2023/04/24 09:21:38;;;;;;;;;7.00;7.00;;;;;29.67;17.49;97658.47;6005702;29;96276;-59
2023/04/24 09:24:43;;;;;;;;;9.50;9.00;;;;;30.01;16.50;97649.00;6005600;28;96213;-60
2023/04/24 09:27:47;;;;;;;;;8.75;8.75;;;;;30.03;17.02;97635.56;6005687;29;96283;-59
2023/04/24 09:31:03;;;;;;;;;9.00;8.00;;;;;30.27;17.44;97655.66;6004287;29;96533;-60
2023/04/24 09:34:07;;;;;;;;;8.00;8.00;;;;;30.02;16.29;97655.38;6005333;28;96304;-60
2023/04/24 09:37:10;;;;;;;;;8.00;8.00;;;;;29.93;16.04;97652.09;6005393;29;96234;-60
2023/04/24 09:40:17;;;;;;;;;9.00;8.00;;;;;29.93;15.48;97639.00;6005475;29;96645;-59
2023/04/24 09:43:20;;;;;;;;;8.00;8.00;;;;;30.37;16.62;97636.31;6005403;29;96224;-59
2023/04/24 09:46:31;;;;;;;;;7.75;6.75;;;;;30.66;16.03;97615.16;6004681;29;96348;-60
2023/04/24 09:49:37;;;;;;;;;10.00;10.00;;;;;30.98;15.19;97630.09;6005151;29;96364;-59
2023/04/24 09:52:45;;;;;;;;;9.00;8.00;;;;;31.46;14.85;97635.66;6005230;29;96252;-60
2023/04/24 09:55:50;;;;;;;;;7.25;7.25;;;;;31.39;14.94;97630.03;6004757;28;96321;-59
2023/04/24 09:58:53;;;;;;;;;7.60;7.60;;;;;31.61;14.85;97620.63;5987604;29;96274;-60
2023/04/24 10:01:58;;;;;;;;;9.00;8.00;;;;;31.48;14.65;97621.31;6003498;29;96265;-59
2023/04/24 10:05:02;;;;;;;;;7.00;6.60;;;;;30.80;14.26;97622.81;6004559;28;97658;-59
2023/04/24 10:08:07;;;;;;;;;6.60;6.60;;;;;30.88;16.29;97607.78;6004452;29;96807;-60
2023/04/24 10:11:13;;;;;;;;;6.80;6.80;;;;;31.20;15.06;97611.63;6004495;28;96847;-60
2023/04/24 10:14:18;;;;;;;;;8.00;7.00;;;;;31.05;15.61;97606.34;6005046;29;96843;-60
2023/04/24 10:17:23;;;;;;;;;8.80;8.80;;;;;30.61;15.06;97606.34;5973631;29;96648;-60
2023/04/24 10:20:30;;;;;;;;;10.00;8.40;;;;;30.73;15.84;97615.22;6004578;28;96234;-60
2023/04/24 10:23:34;;;;;;;;;9.00;8.00;;;;;30.97;15.69;97600.69;6004501;28;96253;-60
2023/04/24 10:26:39;;;;;;;;;8.40;8.00;;;;;31.38;15.31;97606.94;6004172;28;96247;-59
2023/04/24 10:29:44;;;;;;;;;8.00;8.00;;;;;31.91;16.20;97602.84;6003870;28;96297;-60
2023/04/24 10:32:48;;;;;;;;;9.80;9.00;;;;;32.25;14.46;97606.94;6003737;29;96737;-59
2023/04/24 10:35:52;;;;;;;;;10.00;9.00;;;;;32.56;14.39;97588.63;6004184;28;96987;-60
2023/04/24 10:38:58;;;;;;;;;8.80;7.20;;;;;32.87;14.80;97585.09;6003775;28;96514;-60
2023/04/24 10:42:15;;;;;;;;;9.00;9.00;;;;;33.02;15.25;97586.66;6003709;28;96312;-59
2023/04/24 10:45:21;;;;;;;;;9.20;7.20;;;;;33.02;14.44;97588.66;5978455;29;98334;-60
2023/04/24 10:48:28;;;;;;;;;8.25;7.25;;;;;33.21;14.42;97585.47;6003324;28;96373;-60
2023/04/24 10:51:46;;;;;;;;;8.50;8.00;;;;;32.87;13.56;97573.94;5986832;29;98625;-60
2023/04/24 10:54:50;;;;;;;;;9.00;9.00;;;;;32.48;14.36;97570.31;6001099;28;96617;-60
2023/04/24 10:58:05;;;;;;;;;6.00;6.00;;;;;31.99;14.45;97574.59;5986639;29;96351;-60
2023/04/24 11:01:08;;;;;;;;;8.25;8.00;;;;;31.80;15.38;97570.16;5964241;29;97039;-60
2023/04/24 11:04:11;;;;;;;;;9.00;9.00;;;;;31.79;15.91;97573.34;6002916;29;96242;-60
2023/04/24 11:07:15;;;;;;;;;9.00;8.50;;;;;31.86;15.31;97573.38;5991103;29;96323;-60
2023/04/24 11:10:26;;;;;;;;;9.50;9.50;;;;;31.86;15.36;97567.78;5997307;29;96484;-60
2023/04/24 11:14:04;;;;;;;;;9.00;8.00;;;;;32.01;15.31;97574.97;5991981;29;96375;-60
2023/04/24 11:17:08;;;;;;;;;8.00;7.40;;;;;32.06;14.63;97568.25;5996983;28;96965;-60
2023/04/24 11:20:17;;;;;;;;;9.00;8.40;;;;;32.07;14.49;97569.81;6004959;28;96274;-60
2023/04/24 11:23:37;;;;;;;;;9.50;8.25;;;;;32.18;15.28;97565.09;6007118;28;96358;-59
2023/04/24 11:26:42;;;;;;;;;8.40;7.60;;;;;32.33;16.10;97561.13;6004228;29;96689;-60
2023/04/24 11:29:47;;;;;;;;;8.00;7.60;;;;;32.28;14.46;97558.75;6007071;28;96371;-60
2023/04/24 11:32:52;;;;;;;;;9.60;9.00;;;;;32.01;14.24;97555.47;5994242;29;96396;-59
2023/04/24 11:35:56;;;;;;;;;8.00;8.00;;;;;31.83;14.61;97555.44;5987018;28;96676;-60
2023/04/24 11:38:59;;;;;;;;;7.75;7.75;;;;;31.54;14.66;97558.47;5973043;29;96638;-60
2023/04/24 11:42:05;;;;;;;;;11.00;9.00;;;;;31.46;14.99;97552.09;6005723;28;96800;-60
2023/04/24 11:45:11;;;;;;;;;10.00;9.60;;;;;31.32;15.57;97552.03;5979523;29;96351;-60
2023/04/24 11:48:21;;;;;;;;;9.00;9.00;;;;;31.12;16.37;97547.94;5992135;29;96343;-60
2023/04/24 11:51:27;;;;;;;;;8.60;8.60;;;;;31.05;16.04;97545.91;5994455;29;98479;-60
2023/04/24 11:54:38;;;;;;;;;7.40;7.40;;;;;30.45;15.25;97545.41;6006763;28;96334;-59
2023/04/24 11:57:44;;;;;;;;;8.00;8.00;;;;;29.84;15.89;97535.66;5996845;28;96435;-59
2023/04/24 12:00:57;;;;;;;;;8.60;8.40;;;;;30.29;16.62;97528.19;5975820;28;96444;-59
2023/04/24 12:04:01;;;;;;;;;8.50;8.00;;;;;30.67;15.07;97532.50;6006320;29;96250;-58
2023/04/24 12:07:05;;;;;;;;;8.20;7.20;;;;;31.08;15.81;97513.72;5987222;29;96321;-58
2023/04/24 12:10:10;;;;;;;;;10.00;9.00;;;;;31.67;15.89;97526.31;5995905;28;96354;-58
2023/04/24 12:13:14;;;;;;;;;10.00;10.00;;;;;31.91;15.64;97522.00;5982752;29;96358;-59
2023/04/24 12:16:17;;;;;;;;;12.60;12.00;;;;;31.92;14.64;97515.22;5985681;28;96399;-59
2023/04/24 12:19:24;;;;;;;;;9.60;9.40;;;;;31.97;15.84;97515.63;6005920;28;96827;-59
2023/04/24 12:22:27;;;;;;;;;8.75;8.75;;;;;32.19;16.22;97522.09;6005182;28;96282;-59
2023/04/24 12:25:33;;;;;;;;;9.60;9.60;;;;;32.15;14.97;97513.72;6005757;28;97368;-59
2023/04/24 12:28:37;;;;;;;;;7.00;7.00;;;;;31.81;15.32;97512.44;5993480;28;96384;-59
2023/04/24 12:31:41;;;;;;;;;8.60;8.60;;;;;31.42;15.63;97512.28;5995500;28;97591;-59
2023/04/24 12:34:46;;;;;;;;;10.60;10.40;;;;;31.16;15.36;97504.22;5989456;28;96706;-59
2023/04/24 12:37:49;;;;;;;;;8.00;7.33;;;;;30.65;15.40;97513.41;6005654;28;96342;-59
2023/04/24 12:41:03;;;;;;;;;9.00;9.00;;;;;30.16;15.31;97512.97;5988187;28;96372;-59
2023/04/24 12:44:12;;;;;;;;;10.00;9.00;;;;;29.78;15.90;97506.63;5982775;29;96180;-59
2023/04/24 12:47:15;;;;;;;;;10.00;10.00;;;;;29.42;19.56;97524.09;5982637;29;96829;-59
2023/04/24 12:50:20;;;;;;;;;11.60;11.40;;;;;28.99;20.47;97520.72;5985474;29;96733;-59
2023/04/24 12:53:26;;;;;;;;;11.50;10.00;;;;;28.65;21.47;97528.09;6004785;28;96259;-59
2023/04/24 12:56:30;;;;;;;;;10.60;10.00;;;;;28.20;21.92;97526.19;6005095;29;96323;-59
2023/04/24 12:59:33;;;;;;;;;13.00;13.00;;;;;27.70;22.81;97526.44;5999167;28;96242;-60
2023/04/24 13:02:37;;;;;;;;;13.40;13.00;;;;;27.23;23.21;97532.16;5992229;29;96673;-60
2023/04/24 13:05:43;;;;;;;;;14.00;13.40;;;;;26.83;24.64;97536.00;6004174;28;96697;-59
2023/04/24 13:08:47;;;;;;;;;11.25;10.25;;;;;26.34;25.62;97532.09;5993014;29;96324;-60
2023/04/24 13:11:51;;;;;;;;;13.00;12.50;;;;;25.93;25.12;97536.13;5993445;29;96330;-60
2023/04/24 13:14:55;;;;;;;;;10.00;9.00;;;;;25.54;25.70;97535.84;5994591;29;96411;-60
2023/04/24 13:17:58;;;;;;;;;12.40;12.00;;;;;25.31;25.85;97543.06;5978105;29;96293;-61
2023/04/24 13:21:04;;;;;;;;;11.00;11.00;;;;;24.96;26.80;97540.88;5978502;29;96382;-61
2023/04/24 13:24:07;;;;;;;;;10.00;10.00;;;;;24.72;26.94;97540.88;5985908;29;96984;-61
2023/04/24 13:27:11;;;;;;;;;10.00;10.00;;;;;24.45;27.40;97547.88;5961772;29;98513;-60
2023/04/24 13:30:15;;;;;;;;;12.00;12.00;;;;;24.40;27.35;97550.06;5970962;29;96957;-60
2023/04/24 13:33:18;;;;;;;;;11.00;11.00;;;;;24.22;27.75;97543.19;5993123;29;96282;-60
2023/04/24 13:36:23;;;;;;;;;11.00;11.00;;;;;24.12;28.21;97547.97;5973399;29;97229;-60
2023/04/24 13:39:27;;;;;;;;;12.00;11.00;;;;;24.12;28.36;97556.22;5986550;29;96524;-60
2023/04/24 13:42:30;;;;;;;;;10.75;9.75;;;;;23.96;28.83;97566.28;5991218;29;96443;-60
2023/04/24 13:45:34;;;;;;;;;10.00;10.00;;;;;23.72;28.54;97557.94;5960129;29;96693;-60
2023/04/24 13:48:37;;;;;;;;;9.00;9.00;;;;;23.38;28.82;97561.81;5974047;29;96296;-60
2023/04/24 13:51:43;;;;;;;;;9.00;9.00;;;;;23.10;29.32;97556.06;5990003;29;96365;-61
2023/04/24 13:54:46;;;;;;;;;10.60;10.00;;;;;22.93;30.00;97567.16;5991693;29;96382;-61
2023/04/24 13:57:50;;;;;;;;;9.40;9.40;;;;;22.89;29.94;97563.47;5991846;29;96336;-60
2023/04/24 14:00:53;;;;;;;;;7.00;7.00;;;;;22.61;30.33;97579.63;5993013;29;96282;-60
2023/04/24 14:03:57;;;;;;;;;5.60;5.60;;;;;22.50;30.77;97566.59;5992392;29;96307;-61
2023/04/24 14:07:02;;;;;;;;;6.20;6.20;;;;;22.31;30.41;97572.50;5993499;29;96333;-61
2023/04/24 14:10:06;;;;;;;;;9.60;8.60;;;;;22.04;31.60;97568.22;5975756;29;98707;-60
2023/04/24 14:13:09;;;;;;;;;7.60;7.40;;;;;21.97;31.53;97592.63;5975406;29;98362;-60
2023/04/24 14:16:14;;;;;;;;;9.60;8.00;;;;;21.93;31.89;97605.38;5976029;29;98361;-61
2023/04/24 14:19:17;;;;;;;;;9.00;8.00;;;;;21.66;32.96;97579.09;5992787;29;96349;-60